Time;durP1;ratioP1;P1;durP2;ratioP2;P2;SDS_P1;SDS_P2;PMS_P1;PMS_P2;Temp;Humidity;BMP_temperature;BMP_pressure;BME280_temperature;BME280_humidity;BME280_pressure;Samples;Min_cycle;Max_cycle;Signal;HPM_P1;HPM_P2
2023/01/30 00:01:27;;;;;;;14.00;9.03;;;2.60;99.90;;;;;;5084735;28;20458;-69
2023/01/30 00:03:54;;;;;;;14.37;10.03;;;2.60;99.90;;;;;;5084855;28;20851;-69
2023/01/30 00:06:21;;;;;;;13.13;9.87;;;2.60;99.90;;;;;;5084355;28;20524;-68
2023/01/30 00:08:48;;;;;;;11.40;8.90;;;2.60;99.90;;;;;;5084091;28;20821;-69
2023/01/30 00:11:18;;;;;;;12.83;9.30;;;2.60;99.90;;;;;;5084057;28;20451;-69
2023/01/30 00:13:45;;;;;;;17.03;10.17;;;2.50;99.90;;;;;;5084887;28;20513;-68
2023/01/30 00:16:15;;;;;;;12.93;9.83;;;2.60;99.90;;;;;;5084206;28;20486;-68
2023/01/30 00:18:42;;;;;;;14.13;10.50;;;2.50;99.90;;;;;;5084087;28;20830;-69
2023/01/30 00:21:11;;;;;;;14.27;10.20;;;2.50;99.90;;;;;;5085537;28;20583;-68
2023/01/30 00:23:39;;;;;;;16.23;9.80;;;2.50;99.90;;;;;;5085476;28;20496;-69
2023/01/30 00:26:07;;;;;;;15.63;10.53;;;2.50;99.90;;;;;;5085474;28;20450;-68
2023/01/30 00:28:34;;;;;;;14.13;9.70;;;2.60;99.90;;;;;;5084333;28;20994;-69
2023/01/30 00:31:01;;;;;;;13.00;9.33;;;2.60;99.90;;;;;;5081896;28;20979;-68
2023/01/30 00:33:30;;;;;;;14.93;9.20;;;2.60;99.90;;;;;;5082327;28;20469;-69
2023/01/30 00:35:58;;;;;;;13.13;9.13;;;2.60;99.90;;;;;;5082386;28;20485;-69
2023/01/30 00:38:25;;;;;;;15.67;9.70;;;2.60;99.90;;;;;;5082781;28;20488;-68
2023/01/30 00:40:52;;;;;;;13.70;10.00;;;2.60;99.90;;;;;;5082250;28;20511;-69
2023/01/30 00:48:59;;;;;;;16.70;11.47;;;2.60;99.90;;;;;;5083074;28;20444;-69
2023/01/30 00:51:26;;;;;;;14.93;10.00;;;2.60;99.90;;;;;;5081669;28;20534;-69
2023/01/30 00:53:53;;;;;;;16.90;10.23;;;2.60;99.90;;;;;;5084555;28;20450;-69
2023/01/30 00:56:20;;;;;;;15.20;11.17;;;2.60;99.90;;;;;;5084207;28;20547;-68
2023/01/30 00:58:47;;;;;;;17.80;11.10;;;2.60;99.90;;;;;;5081077;28;20545;-69
2023/01/30 01:01:14;;;;;;;14.90;11.77;;;2.60;99.90;;;;;;5081241;28;20454;-69
2023/01/30 01:03:40;;;;;;;14.97;10.47;;;2.60;99.90;;;;;;5081039;28;20489;-69
2023/01/30 01:06:09;;;;;;;14.50;10.23;;;2.60;99.90;;;;;;5080958;28;20459;-69
2023/01/30 01:08:36;;;;;;;17.87;10.67;;;2.60;99.90;;;;;;5082654;28;20474;-68
2023/01/30 01:11:03;;;;;;;14.67;9.83;;;2.60;99.90;;;;;;5079151;28;21022;-67
2023/01/30 01:13:29;;;;;;;14.63;10.50;;;2.60;99.90;;;;;;5078104;28;20476;-69
2023/01/30 01:15:56;;;;;;;16.20;10.63;;;2.50;99.90;;;;;;5079020;28;20536;-68
2023/01/30 01:18:23;;;;;;;17.40;11.57;;;2.60;99.90;;;;;;5077320;28;20450;-69
2023/01/30 01:20:50;;;;;;;18.37;10.50;;;2.60;99.90;;;;;;5077785;28;20501;-69
2023/01/30 01:23:18;;;;;;;16.43;10.27;;;2.50;99.90;;;;;;5081302;28;20482;-68
2023/01/30 01:25:45;;;;;;;14.77;10.10;;;2.50;99.90;;;;;;5079986;28;20518;-68
2023/01/30 01:28:12;;;;;;;17.93;12.10;;;2.50;99.90;;;;;;5079533;28;20565;-69
2023/01/30 01:30:39;;;;;;;15.80;10.47;;;2.50;99.90;;;;;;5079453;28;20525;-69
2023/01/30 01:33:06;;;;;;;15.97;10.50;;;2.50;99.90;;;;;;5077804;28;20553;-70
2023/01/30 01:35:32;;;;;;;16.27;11.70;;;2.50;99.90;;;;;;5081508;28;20489;-68
2023/01/30 01:37:59;;;;;;;15.67;11.10;;;2.50;99.90;;;;;;5079173;28;20911;-68
2023/01/30 01:43:17;;;;;;;16.87;11.33;;;2.50;99.90;;;;;;5083659;28;20492;-68
2023/01/30 01:45:44;;;;;;;17.10;12.30;;;2.50;99.90;;;;;;5082867;28;20472;-69
2023/01/30 01:48:15;;;;;;;18.80;11.77;;;2.50;99.90;;;;;;5079311;28;20810;-69
2023/01/30 01:50:48;;;;;;;17.53;11.53;;;2.50;99.90;;;;;;5078577;28;20470;-69
2023/01/30 01:53:18;;;;;;;15.33;10.67;;;2.60;99.90;;;;;;5079743;28;20523;-69
2023/01/30 01:55:49;;;;;;;16.50;12.23;;;2.60;99.90;;;;;;5080154;28;20541;-68
2023/01/30 01:58:19;;;;;;;19.00;12.53;;;2.60;99.90;;;;;;5080462;28;20795;-69
2023/01/30 02:00:48;;;;;;;18.50;12.53;;;2.60;99.90;;;;;;5080764;28;20461;-68
2023/01/30 02:03:17;;;;;;;17.63;12.53;;;2.60;99.90;;;;;;5081184;28;20457;-70
2023/01/30 02:05:49;;;;;;;17.77;11.90;;;2.60;99.90;;;;;;5082626;28;20982;-67
2023/01/30 02:08:21;;;;;;;18.53;12.20;;;2.50;99.90;;;;;;5082606;28;20493;-70
2023/01/30 02:10:56;;;;;;;20.90;11.80;;;2.40;99.90;;;;;;5083230;28;20893;-69
2023/01/30 02:13:23;;;;;;;19.13;13.00;;;2.40;99.90;;;;;;5082922;28;20434;-69
2023/01/30 02:15:51;;;;;;;19.27;13.27;;;2.30;99.90;;;;;;5083453;28;20454;-69
2023/01/30 02:18:19;;;;;;;19.97;13.10;;;2.30;99.90;;;;;;5085591;28;20450;-69
2023/01/30 02:21:03;;;;;;;20.70;12.70;;;2.20;99.90;;;;;;5085916;28;20538;-69
2023/01/30 02:23:53;;;;;;;20.40;13.30;;;2.20;99.90;;;;;;5086813;28;20812;-69
2023/01/30 02:26:55;;;;;;;22.67;15.23;;;2.10;99.90;;;;;;5085368;28;20450;-67
2023/01/30 02:29:53;;;;;;;21.20;13.37;;;2.10;99.90;;;;;;5047504;28;20448;-69
2023/01/30 02:32:30;;;;;;;18.20;12.77;;;2.20;99.90;;;;;;5085441;28;20434;-69
2023/01/30 02:35:04;;;;;;;26.03;14.60;;;2.20;99.90;;;;;;5086276;28;20794;-67
2023/01/30 02:37:46;;;;;;;21.40;14.17;;;2.20;99.90;;;;;;5086528;28;20445;-69
2023/01/30 02:40:27;;;;;;;22.37;14.10;;;2.20;99.90;;;;;;5086104;28;20528;-68
2023/01/30 02:43:04;;;;;;;22.90;14.33;;;2.20;99.90;;;;;;5086473;28;20479;-69
2023/01/30 02:45:36;;;;;;;22.30;14.60;;;2.10;99.90;;;;;;5085838;28;20464;-69
2023/01/30 02:48:06;;;;;;;21.30;14.40;;;2.10;99.90;;;;;;5084822;28;20473;-69
2023/01/30 02:50:38;;;;;;;23.57;15.10;;;2.00;99.90;;;;;;5085716;28;20510;-69
2023/01/30 02:53:07;;;;;;;23.60;15.50;;;2.00;99.90;;;;;;5084619;28;20875;-69
2023/01/30 02:55:34;;;;;;;27.20;15.80;;;2.00;99.90;;;;;;5084578;28;20493;-68
2023/01/30 02:58:03;;;;;;;21.80;15.33;;;1.90;99.90;;;;;;5083770;28;20477;-68
2023/01/30 03:00:49;;;;;;;21.90;14.17;;;1.90;99.90;;;;;;5083690;28;20917;-68
2023/01/30 03:03:34;;;;;;;25.93;15.20;;;1.90;99.90;;;;;;5084108;28;20434;-69
2023/01/30 03:06:27;;;;;;;24.03;14.60;;;1.90;99.90;;;;;;5086092;28;20533;-69
2023/01/30 03:09:07;;;;;;;25.27;14.90;;;1.90;99.90;;;;;;5081875;28;20874;-69
2023/01/30 03:11:43;;;;;;;26.43;16.23;;;1.90;99.90;;;;;;5086106;28;20503;-69
2023/01/30 03:14:19;;;;;;;24.47;15.50;;;2.00;99.90;;;;;;5084860;28;20453;-68
2023/01/30 03:16:47;;;;;;;22.43;13.90;;;2.00;99.90;;;;;;5083291;28;20521;-69
2023/01/30 03:19:19;;;;;;;27.50;15.77;;;2.00;99.90;;;;;;5082191;28;20930;-69
2023/01/30 03:21:46;;;;;;;24.00;15.10;;;2.10;99.90;;;;;;5082415;28;20450;-69
2023/01/30 03:24:14;;;;;;;24.20;15.50;;;2.10;99.90;;;;;;5082399;28;20464;-69
2023/01/30 03:26:50;;;;;;;24.90;15.50;;;2.20;99.90;;;;;;5082310;28;20474;-69
2023/01/30 03:29:16;;;;;;;25.20;14.50;;;2.20;99.90;;;;;;5081211;28;20891;-67
2023/01/30 03:31:43;;;;;;;25.43;14.27;;;2.20;99.90;;;;;;5082441;28;20823;-70
2023/01/30 03:34:10;;;;;;;21.97;14.27;;;2.30;99.90;;;;;;5081052;28;20522;-69
2023/01/30 03:36:39;;;;;;;23.10;15.53;;;2.30;99.90;;;;;;5079897;28;20513;-68
2023/01/30 03:39:06;;;;;;;26.13;15.90;;;2.30;99.90;;;;;;5080722;28;20537;-69
2023/01/30 03:41:32;;;;;;;19.93;13.77;;;2.40;99.90;;;;;;5081030;28;20553;-70
2023/01/30 03:43:59;;;;;;;21.43;14.40;;;2.40;99.90;;;;;;5080939;28;20482;-69
2023/01/30 03:46:26;;;;;;;20.97;13.90;;;2.50;99.90;;;;;;5082189;28;20536;-69
2023/01/30 03:48:53;;;;;;;21.60;14.97;;;2.50;99.90;;;;;;5083279;28;20489;-69
2023/01/30 03:51:20;;;;;;;20.47;13.33;;;2.50;99.90;;;;;;5081143;28;20455;-69
2023/01/30 03:53:48;;;;;;;23.47;13.60;;;2.50;99.90;;;;;;5081759;28;20549;-69
2023/01/30 03:56:36;;;;;;;20.57;14.30;;;2.50;99.90;;;;;;5079279;28;20458;-69
2023/01/30 03:59:04;;;;;;;25.50;15.50;;;2.50;99.90;;;;;;5081828;28;20514;-68
2023/01/30 04:01:31;;;;;;;22.33;14.90;;;2.50;99.90;;;;;;5082032;28;20537;-69
2023/01/30 04:03:58;;;;;;;23.00;14.33;;;2.50;99.90;;;;;;5080628;28;20533;-69
2023/01/30 04:06:25;;;;;;;23.13;14.20;;;2.50;99.90;;;;;;5080624;28;20537;-70
2023/01/30 04:08:54;;;;;;;20.40;13.90;;;2.60;99.90;;;;;;5079675;28;20513;-70
2023/01/30 04:11:21;;;;;;;23.07;15.03;;;2.60;99.90;;;;;;5080697;28;20643;-68
2023/01/30 04:13:48;;;;;;;23.40;14.03;;;2.60;99.90;;;;;;5079518;28;20458;-69
2023/01/30 04:16:17;;;;;;;21.00;13.93;;;2.70;99.90;;;;;;5079879;28;20454;-69
2023/01/30 04:18:44;;;;;;;19.03;13.00;;;2.70;99.90;;;;;;5080874;28;20446;-69
2023/01/30 04:21:11;;;;;;;22.40;14.27;;;2.80;99.90;;;;;;5080532;28;21005;-70
2023/01/30 04:23:39;;;;;;;22.73;13.63;;;2.80;99.90;;;;;;5081610;28;20827;-70
2023/01/30 04:26:07;;;;;;;25.80;14.03;;;2.90;99.90;;;;;;5080999;28;20458;-68
2023/01/30 04:28:35;;;;;;;19.20;13.37;;;2.90;99.90;;;;;;5081121;28;20565;-69
2023/01/30 04:31:02;;;;;;;23.67;14.90;;;3.00;99.90;;;;;;5081183;28;20553;-68
2023/01/30 04:33:29;;;;;;;16.30;12.10;;;3.00;99.90;;;;;;5080827;28;20458;-69
2023/01/30 04:35:57;;;;;;;22.10;14.07;;;3.00;99.90;;;;;;5080034;28;20494;-69
2023/01/30 04:38:25;;;;;;;20.90;13.70;;;3.10;99.90;;;;;;5080583;28;20474;-69
2023/01/30 04:40:53;;;;;;;19.13;13.00;;;3.10;99.90;;;;;;5079830;28;20840;-69
2023/01/30 04:43:23;;;;;;;18.97;12.97;;;3.20;99.90;;;;;;5080912;28;20518;-69
2023/01/30 04:45:51;;;;;;;19.40;12.93;;;3.20;99.90;;;;;;5080773;28;20514;-69
2023/01/30 04:48:19;;;;;;;21.33;14.03;;;3.20;99.90;;;;;;5079751;28;20508;-70
2023/01/30 04:50:49;;;;;;;19.73;13.37;;;3.20;99.90;;;;;;5078728;28;20454;-68
2023/01/30 04:53:16;;;;;;;21.40;14.20;;;3.20;99.90;;;;;;5079587;28;20454;-69
2023/01/30 04:55:43;;;;;;;21.77;13.80;;;3.10;99.90;;;;;;5078864;28;20517;-68
2023/01/30 04:58:10;;;;;;;22.80;14.97;;;3.10;99.90;;;;;;5078568;28;20524;-69
2023/01/30 05:00:38;;;;;;;22.50;15.40;;;3.10;99.90;;;;;;5077954;28;20482;-68
2023/01/30 05:03:06;;;;;;;25.67;15.17;;;3.00;99.90;;;;;;5077412;28;20477;-69
2023/01/30 05:05:33;;;;;;;19.00;13.70;;;3.00;99.90;;;;;;5077280;28;20777;-69
2023/01/30 05:08:00;;;;;;;22.63;14.87;;;3.00;99.90;;;;;;5076532;28;20954;-71
2023/01/30 05:10:27;;;;;;;23.23;14.30;;;2.90;99.90;;;;;;5076023;28;20454;-69
2023/01/30 05:12:54;;;;;;;24.47;15.20;;;2.90;99.90;;;;;;5076068;28;20454;-69
2023/01/30 05:15:21;;;;;;;22.10;14.33;;;2.80;99.90;;;;;;5075724;28;20454;-69
2023/01/30 05:17:49;;;;;;;22.90;15.90;;;2.80;99.90;;;;;;5077023;28;20779;-70
2023/01/30 05:20:16;;;;;;;21.90;14.17;;;2.70;99.90;;;;;;5076047;28;20783;-69
2023/01/30 05:22:42;;;;;;;25.30;14.87;;;2.70;99.90;;;;;;5076007;28;20913;-69
2023/01/30 05:25:10;;;;;;;25.57;15.17;;;2.70;99.90;;;;;;5075971;28;20464;-69
2023/01/30 05:27:37;;;;;;;29.00;16.07;;;2.70;99.90;;;;;;5076130;28;20501;-70
2023/01/30 05:30:04;;;;;;;24.60;15.33;;;2.70;99.90;;;;;;5075966;28;20458;-69
2023/01/30 05:32:31;;;;;;;26.33;14.73;;;2.70;99.90;;;;;;5074787;28;20460;-69
2023/01/30 05:34:59;;;;;;;27.20;15.97;;;2.70;99.90;;;;;;5075675;28;20541;-69
2023/01/30 05:37:26;;;;;;;27.17;16.40;;;2.70;99.90;;;;;;5077802;28;20458;-67
2023/01/30 05:39:53;;;;;;;22.60;15.07;;;2.70;99.90;;;;;;5076821;28;20469;-68
2023/01/30 05:42:20;;;;;;;24.47;15.90;;;2.70;99.90;;;;;;5074985;28;20458;-69
2023/01/30 05:44:47;;;;;;;28.87;16.00;;;2.70;99.90;;;;;;5074390;28;20486;-69
2023/01/30 05:47:13;;;;;;;24.13;15.53;;;2.70;99.90;;;;;;5074544;28;20454;-69
2023/01/30 05:49:40;;;;;;;24.87;15.53;;;2.70;99.90;;;;;;5075271;28;20478;-69
2023/01/30 05:52:09;;;;;;;29.20;17.20;;;2.70;99.90;;;;;;5076173;28;20454;-69
2023/01/30 05:54:35;;;;;;;32.67;17.53;;;2.70;99.90;;;;;;5079045;28;20773;-69
2023/01/30 05:57:02;;;;;;;26.23;15.23;;;2.70;99.90;;;;;;5078493;28;20938;-68
2023/01/30 05:59:29;;;;;;;28.00;17.07;;;2.70;99.90;;;;;;5078719;28;20485;-69
2023/01/30 06:01:56;;;;;;;29.80;17.17;;;2.70;99.90;;;;;;5078617;28;20454;-69
2023/01/30 06:04:23;;;;;;;27.43;16.70;;;2.70;99.90;;;;;;5078371;28;20469;-69
2023/01/30 06:06:50;;;;;;;26.37;16.10;;;2.70;99.90;;;;;;5078634;28;20540;-69
2023/01/30 06:09:18;;;;;;;27.43;17.10;;;2.70;99.90;;;;;;5078774;28;20478;-69
2023/01/30 06:11:45;;;;;;;27.90;17.37;;;2.80;99.90;;;;;;5078708;28;20544;-69
2023/01/30 06:14:12;;;;;;;26.67;17.60;;;2.80;99.90;;;;;;5078611;28;20460;-69
2023/01/30 06:16:39;;;;;;;31.27;17.33;;;2.80;99.90;;;;;;5078551;28;21010;-68
2023/01/30 06:19:05;;;;;;;30.27;16.50;;;2.90;99.90;;;;;;5078814;28;20481;-69
2023/01/30 06:21:32;;;;;;;24.10;15.67;;;2.90;99.90;;;;;;5078912;28;20453;-69
2023/01/30 06:23:59;;;;;;;26.43;16.27;;;2.90;99.90;;;;;;5085106;28;20545;-69
2023/01/30 06:26:27;;;;;;;26.67;16.77;;;2.90;99.90;;;;;;5086669;28;20968;-69
2023/01/30 06:28:54;;;;;;;28.23;16.97;;;3.00;99.90;;;;;;5086796;28;20481;-68
2023/01/30 06:31:21;;;;;;;26.33;15.10;;;3.00;99.90;;;;;;5086143;28;20541;-70
2023/01/30 06:33:48;;;;;;;27.60;16.60;;;3.00;99.90;;;;;;5087071;28;20464;-69
2023/01/30 06:36:15;;;;;;;25.33;15.23;;;3.10;99.90;;;;;;5086540;28;20457;-70
2023/01/30 06:38:42;;;;;;;24.37;15.80;;;3.10;99.90;;;;;;5086972;28;20480;-70
2023/01/30 06:41:09;;;;;;;23.50;15.03;;;3.20;99.90;;;;;;5086885;28;20541;-68
2023/01/30 06:43:37;;;;;;;23.53;15.40;;;3.20;99.90;;;;;;5083817;28;20574;-69
2023/01/30 06:46:04;;;;;;;24.80;14.93;;;3.30;99.90;;;;;;5083166;28;20518;-69
2023/01/30 06:48:31;;;;;;;25.47;15.97;;;3.30;99.90;;;;;;5082502;28;20525;-68
2023/01/30 06:50:58;;;;;;;22.97;14.80;;;3.40;99.90;;;;;;5085640;28;20454;-70
2023/01/30 06:53:29;;;;;;;22.33;14.40;;;3.40;99.90;;;;;;5084726;28;20489;-69
2023/01/30 06:55:56;;;;;;;21.10;14.90;;;3.50;99.90;;;;;;5085719;28;20439;-70
2023/01/30 06:58:23;;;;;;;23.20;14.57;;;3.50;99.90;;;;;;5082361;28;20446;-70
2023/01/30 07:00:51;;;;;;;22.60;14.17;;;3.60;99.90;;;;;;5084448;28;20529;-70
2023/01/30 07:03:18;;;;;;;22.07;13.60;;;3.60;99.90;;;;;;5067863;28;20494;-68
2023/01/30 07:05:47;;;;;;;21.33;13.53;;;3.60;99.90;;;;;;5065227;28;20479;-68
2023/01/30 07:08:15;;;;;;;20.40;12.27;;;3.70;99.90;;;;;;5064702;28;20552;-68
2023/01/30 07:10:43;;;;;;;18.03;12.40;;;3.70;99.90;;;;;;5065157;28;20526;-69
2023/01/30 07:13:10;;;;;;;18.53;12.30;;;3.80;99.90;;;;;;5064668;28;20518;-69
2023/01/30 07:15:37;;;;;;;13.87;9.93;;;3.80;99.90;;;;;;5064341;28;20787;-68
2023/01/30 07:18:05;;;;;;;17.33;11.90;;;3.80;99.90;;;;;;5063277;28;20962;-69
2023/01/30 07:20:32;;;;;;;20.23;13.47;;;3.80;99.90;;;;;;5062974;28;20483;-69
2023/01/30 07:22:59;;;;;;;16.13;12.23;;;3.90;99.90;;;;;;5061845;28;20458;-70
2023/01/30 07:25:27;;;;;;;16.33;11.07;;;3.90;99.90;;;;;;5062757;28;20487;-70
2023/01/30 07:27:56;;;;;;;16.17;12.00;;;3.90;99.90;;;;;;5064517;28;20469;-69
2023/01/30 07:30:23;;;;;;;15.77;10.83;;;4.00;99.90;;;;;;5063689;28;20538;-69
2023/01/30 07:32:50;;;;;;;17.93;11.67;;;4.00;99.90;;;;;;5064662;28;20482;-68
2023/01/30 07:35:19;;;;;;;15.53;10.93;;;4.00;99.90;;;;;;5064644;28;20451;-69
2023/01/30 07:37:47;;;;;;;15.93;10.90;;;4.00;99.90;;;;;;5064437;28;20451;-70
2023/01/30 07:40:14;;;;;;;14.87;10.67;;;4.10;99.90;;;;;;5062572;28;20477;-70
2023/01/30 07:42:42;;;;;;;18.90;11.07;;;4.10;99.90;;;;;;5060236;28;20451;-71
2023/01/30 07:45:09;;;;;;;21.47;11.83;;;4.10;99.90;;;;;;5056603;28;20447;-69
2023/01/30 07:47:36;;;;;;;19.13;12.47;;;4.20;99.90;;;;;;5057136;28;20779;-69
2023/01/30 07:50:03;;;;;;;16.63;12.23;;;4.20;99.90;;;;;;5056987;28;20956;-68
2023/01/30 07:52:32;;;;;;;17.50;13.00;;;4.20;99.90;;;;;;5056566;28;20459;-69
2023/01/30 07:54:59;;;;;;;19.40;12.53;;;4.20;99.90;;;;;;5056820;28;20463;-70
2023/01/30 07:57:25;;;;;;;16.80;10.90;;;4.20;99.90;;;;;;5057034;28;20500;-70
2023/01/30 07:59:52;;;;;;;17.67;11.50;;;4.20;99.90;;;;;;5058526;28;20483;-69
2023/01/30 08:02:19;;;;;;;17.77;11.23;;;4.20;99.90;;;;;;5057491;28;20546;-70
2023/01/30 08:04:46;;;;;;;17.03;11.97;;;4.20;99.90;;;;;;5059739;28;20451;-69
2023/01/30 08:07:13;;;;;;;16.97;11.33;;;4.30;99.90;;;;;;5060841;28;20494;-70
2023/01/30 08:09:41;;;;;;;19.17;11.80;;;4.30;99.90;;;;;;5060444;28;20505;-71
2023/01/30 08:12:08;;;;;;;17.17;11.97;;;4.30;99.90;;;;;;5064020;28;20518;-69
2023/01/30 08:14:35;;;;;;;16.77;10.80;;;4.30;99.90;;;;;;5064557;28;20466;-69
2023/01/30 08:17:02;;;;;;;17.63;11.67;;;4.30;99.90;;;;;;5060684;28;20506;-69
2023/01/30 08:19:28;;;;;;;18.00;10.70;;;4.30;99.90;;;;;;5060639;28;20520;-69
2023/01/30 08:21:55;;;;;;;15.37;10.77;;;4.30;99.90;;;;;;5060333;28;20459;-70
2023/01/30 08:24:22;;;;;;;20.03;10.47;;;4.30;99.90;;;;;;5059019;28;20832;-71
2023/01/30 08:26:50;;;;;;;16.20;11.90;;;4.40;99.90;;;;;;5059349;28;20459;-70
2023/01/30 08:29:17;;;;;;;17.30;13.00;;;4.40;99.90;;;;;;5058897;28;20891;-69
2023/01/30 08:31:44;;;;;;;17.77;11.10;;;4.40;99.90;;;;;;5061657;28;20483;-70
2023/01/30 08:34:11;;;;;;;14.97;10.67;;;4.40;99.90;;;;;;5058656;28;20474;-70
2023/01/30 08:36:38;;;;;;;17.60;11.47;;;4.40;99.90;;;;;;5065111;28;20614;-70
2023/01/30 08:39:05;;;;;;;16.00;12.87;;;4.40;99.90;;;;;;5062532;28;20634;-70
2023/01/30 08:41:32;;;;;;;19.13;13.10;;;4.50;99.90;;;;;;5061738;28;20463;-69
2023/01/30 08:44:00;;;;;;;16.37;12.10;;;4.50;99.90;;;;;;5060853;28;20874;-69
2023/01/30 08:46:27;;;;;;;15.63;12.33;;;4.60;99.90;;;;;;5058116;28;20485;-69
2023/01/30 08:48:54;;;;;;;15.03;11.30;;;4.60;99.90;;;;;;5058517;28;20562;-69
2023/01/30 08:51:21;;;;;;;16.27;11.97;;;4.60;99.90;;;;;;5057721;28;20459;-71
2023/01/30 08:53:48;;;;;;;18.40;12.40;;;4.60;99.90;;;;;;5056944;28;20459;-71
2023/01/30 08:56:14;;;;;;;15.57;11.10;;;4.60;99.90;;;;;;5056909;28;20542;-69
2023/01/30 08:58:42;;;;;;;11.73;8.70;;;4.60;99.90;;;;;;5059181;28;20543;-69
2023/01/30 09:01:10;;;;;;;12.63;8.07;;;4.60;99.90;;;;;;5059890;28;20440;-71
2023/01/30 09:03:37;;;;;;;8.50;6.33;;;4.70;99.90;;;;;;5060223;28;20455;-69
2023/01/30 09:06:05;;;;;;;11.17;6.90;;;4.70;99.90;;;;;;5061833;28;20535;-70
2023/01/30 09:08:31;;;;;;;16.80;7.70;;;4.70;99.90;;;;;;5066644;28;20511;-69
2023/01/30 09:10:59;;;;;;;9.30;6.20;;;4.70;99.90;;;;;;5061983;28;20523;-70
2023/01/30 09:13:26;;;;;;;12.20;6.50;;;4.70;99.90;;;;;;5062351;28;20548;-70
2023/01/30 09:15:53;;;;;;;11.43;6.93;;;4.80;99.90;;;;;;5061059;28;20542;-69
2023/01/30 09:18:22;;;;;;;14.60;9.13;;;4.80;99.90;;;;;;5062267;28;20546;-68
2023/01/30 09:20:48;;;;;;;11.00;7.50;;;4.80;99.90;;;;;;5058044;28;20515;-69
2023/01/30 09:23:16;;;;;;;9.07;6.67;;;4.80;99.90;;;;;;5056904;28;20527;-71
2023/01/30 09:25:45;;;;;;;11.93;6.90;;;4.90;99.90;;;;;;5057251;28;20456;-68
2023/01/30 09:28:12;;;;;;;6.97;5.07;;;4.90;99.90;;;;;;5060495;28;20800;-69
2023/01/30 09:30:38;;;;;;;7.40;5.00;;;5.00;99.90;;;;;;5062668;28;20777;-69
2023/01/30 09:33:05;;;;;;;7.60;4.30;;;5.00;99.90;;;;;;5065229;28;20502;-69
2023/01/30 09:35:33;;;;;;;6.77;4.93;;;5.00;99.90;;;;;;5065536;28;20458;-68
2023/01/30 09:38:01;;;;;;;7.53;4.57;;;5.10;99.90;;;;;;5063955;28;20505;-70
2023/01/30 09:40:31;;;;;;;8.60;4.50;;;5.10;99.90;;;;;;5064852;28;20455;-69
2023/01/30 09:43:22;;;;;;;7.30;3.43;;;5.10;99.90;;;;;;5065086;28;20475;-69
2023/01/30 09:46:04;;;;;;;6.70;3.47;;;5.10;99.90;;;;;;5064151;28;20436;-69
2023/01/30 09:48:36;;;;;;;9.43;3.63;;;5.20;99.90;;;;;;5065193;28;20449;-69
2023/01/30 09:51:19;;;;;;;8.13;4.30;;;5.20;99.90;;;;;;5063783;28;20478;-69
2023/01/30 09:54:12;;;;;;;9.53;3.03;;;5.20;99.90;;;;;;5065665;28;20474;-69
2023/01/30 09:56:39;;;;;;;9.83;3.27;;;5.30;99.90;;;;;;5066611;28;20804;-70
2023/01/30 09:59:07;;;;;;;8.10;3.03;;;5.30;99.90;;;;;;5066715;28;20461;-71
2023/01/30 10:01:42;;;;;;;2.73;2.40;;;5.40;99.90;;;;;;5065693;28;20494;-73
2023/01/30 10:04:18;;;;;;;6.20;2.50;;;5.40;99.90;;;;;;5067056;28;20463;-69
2023/01/30 10:07:06;;;;;;;5.63;2.50;;;5.40;99.90;;;;;;5067815;28;20454;-69
2023/01/30 10:09:41;;;;;;;6.30;2.80;;;5.40;99.90;;;;;;5067318;28;20535;-68
2023/01/30 10:12:27;;;;;;;6.30;2.87;;;5.50;99.90;;;;;;5065862;28;20439;-69
2023/01/30 10:15:13;;;;;;;13.20;3.00;;;5.50;99.90;;;;;;5063248;28;20543;-69
2023/01/30 10:17:54;;;;;;;7.50;3.10;;;5.60;99.90;;;;;;5063271;28;20941;-68
2023/01/30 10:20:41;;;;;;;6.63;2.60;;;5.70;99.90;;;;;;5064882;28;20474;-69
2023/01/30 10:23:39;;;;;;;6.20;2.40;;;5.70;99.90;;;;;;5065496;28;20539;-70
2023/01/30 10:26:10;;;;;;;4.40;1.97;;;5.80;99.90;;;;;;5065730;28;20506;-69
2023/01/30 10:28:41;;;;;;;5.83;1.80;;;5.80;99.90;;;;;;5062898;28;20443;-70
2023/01/30 10:31:12;;;;;;;7.20;1.57;;;5.90;99.90;;;;;;5064593;28;20485;-69
2023/01/30 10:33:44;;;;;;;5.00;2.10;;;5.90;99.90;;;;;;5062533;28;20527;-68
2023/01/30 10:36:14;;;;;;;7.63;2.63;;;5.90;99.90;;;;;;5061816;28;20443;-68
2023/01/30 10:38:46;;;;;;;9.17;2.80;;;5.90;99.90;;;;;;5061045;28;20526;-68
2023/01/30 10:41:23;;;;;;;8.40;2.83;;;5.90;99.90;;;;;;5061420;28;20462;-68
2023/01/30 10:43:58;;;;;;;10.00;2.17;;;6.00;99.90;;;;;;5060357;28;20494;-69
2023/01/30 10:46:38;;;;;;;9.50;2.50;;;6.00;99.90;;;;;;5062110;28;20529;-69
2023/01/30 10:49:11;;;;;;;8.67;2.13;;;6.00;99.90;;;;;;5062451;28;20497;-69
2023/01/30 10:51:47;;;;;;;12.83;2.43;;;6.00;99.90;;;;;;5061815;28;20511;-69
2023/01/30 10:54:21;;;;;;;15.30;4.50;;;6.00;99.90;;;;;;5061655;28;20457;-68
2023/01/30 10:56:56;;;;;;;13.60;2.77;;;6.00;99.90;;;;;;5061668;28;20530;-68
2023/01/30 10:59:28;;;;;;;7.37;3.23;;;6.00;99.90;;;;;;5062201;28;20474;-69
2023/01/30 11:02:02;;;;;;;11.13;2.57;;;6.00;99.90;;;;;;5060895;28;20492;-69
2023/01/30 11:04:40;;;;;;;11.90;2.03;;;6.00;99.90;;;;;;5060513;28;20509;-70
2023/01/30 11:07:07;;;;;;;9.70;2.87;;;6.00;99.90;;;;;;5059377;28;20834;-70
2023/01/30 11:09:47;;;;;;;12.70;2.77;;;6.00;99.90;;;;;;5058880;28;21070;-69
2023/01/30 11:12:14;;;;;;;9.27;2.27;;;6.10;99.90;;;;;;5060287;28;20449;-69
2023/01/30 11:14:57;;;;;;;13.93;2.40;;;6.10;99.90;;;;;;5059227;28;20491;-68
2023/01/30 11:17:30;;;;;;;12.57;2.50;;;6.10;99.90;;;;;;5061988;28;20471;-68
2023/01/30 11:20:01;;;;;;;11.00;3.07;;;6.10;99.90;;;;;;5060278;28;20440;-69
2023/01/30 11:22:33;;;;;;;11.13;1.90;;;6.10;99.90;;;;;;5066647;28;20458;-69
2023/01/30 11:25:09;;;;;;;13.97;2.30;;;6.20;99.90;;;;;;5079883;28;20442;-69
2023/01/30 11:27:36;;;;;;;9.87;2.80;;;6.30;99.90;;;;;;5080743;28;20529;-68
2023/01/30 11:30:10;;;;;;;12.00;2.43;;;6.30;99.90;;;;;;5081270;28;20578;-68
2023/01/30 11:32:37;;;;;;;14.73;1.87;;;6.30;99.90;;;;;;5078399;28;20461;-68
2023/01/30 11:35:23;;;;;;;11.80;2.70;;;6.30;99.90;;;;;;5079445;28;20935;-69
2023/01/30 11:37:52;;;;;;;12.00;2.33;;;6.40;99.90;;;;;;5080592;28;20477;-68
2023/01/30 11:40:25;;;;;;;14.30;2.60;;;6.30;99.90;;;;;;5080652;28;20461;-68
2023/01/30 11:42:58;;;;;;;10.67;2.80;;;6.30;99.90;;;;;;5079390;28;20493;-68
2023/01/30 11:45:25;;;;;;;11.00;2.83;;;6.20;99.90;;;;;;5080285;28;20838;-68
2023/01/30 11:47:55;;;;;;;8.57;3.37;;;6.20;99.90;;;;;;5082011;28;20514;-69
2023/01/30 11:50:31;;;;;;;11.80;3.30;;;6.20;99.90;;;;;;5079141;28;21057;-70
2023/01/30 11:53:03;;;;;;;8.37;2.77;;;6.20;99.90;;;;;;5081744;28;20454;-68
2023/01/30 11:55:36;;;;;;;9.93;2.57;;;6.30;99.90;;;;;;5081143;28;20525;-67
2023/01/30 11:58:09;;;;;;;8.10;2.63;;;6.30;99.90;;;;;;5080033;28;20466;-70
2023/01/30 12:00:40;;;;;;;3.60;1.90;;;6.30;99.90;;;;;;5079663;28;20435;-69
2023/01/30 12:03:14;;;;;;;7.37;1.63;;;6.20;99.90;;;;;;5079418;28;20482;-68
2023/01/30 12:05:44;;;;;;;8.83;1.80;;;5.80;99.90;;;;;;5080957;28;20909;-68
2023/01/30 12:08:20;;;;;;;6.50;2.50;;;5.60;99.90;;;;;;5081439;28;20992;-67
2023/01/30 12:10:52;;;;;;;5.67;2.00;;;5.50;99.90;;;;;;5079810;28;20509;-70
2023/01/30 12:13:25;;;;;;;2.97;1.53;;;5.30;99.90;;;;;;5079291;28;20449;-67
2023/01/30 12:16:01;;;;;;;5.90;1.63;;;5.00;99.90;;;;;;5088418;28;20470;-70
2023/01/30 12:18:35;;;;;;;6.00;2.00;;;5.00;99.90;;;;;;5082447;28;20438;-69
2023/01/30 12:21:06;;;;;;;7.40;2.10;;;5.50;99.90;;;;;;5078629;28;20933;-69
2023/01/30 12:23:39;;;;;;;7.97;2.20;;;6.20;99.90;;;;;;5079130;28;20964;-69
2023/01/30 12:26:14;;;;;;;17.23;2.33;;;6.80;99.90;;;;;;5081047;28;21004;-69
2023/01/30 12:28:47;;;;;;;8.70;2.00;;;6.80;99.90;;;;;;5079570;28;20513;-69
2023/01/30 12:31:19;;;;;;;12.27;2.63;;;6.90;99.90;;;;;;5079657;28;20534;-70
2023/01/30 12:33:47;;;;;;;8.80;2.63;;;7.30;99.90;;;;;;5080139;28;20449;-68
2023/01/30 12:36:25;;;;;;;6.27;1.90;;;7.60;99.90;;;;;;5079012;28;20496;-68
2023/01/30 12:39:02;;;;;;;4.50;1.60;;;7.60;99.90;;;;;;5078801;28;20481;-69
2023/01/30 12:41:42;;;;;;;13.37;2.93;;;7.40;99.90;;;;;;5079368;28;20503;-69
2023/01/30 12:44:25;;;;;;;9.83;2.47;;;7.30;99.90;;;;;;5078613;28;20486;-70
2023/01/30 12:47:09;;;;;;;9.60;2.80;;;7.10;99.90;;;;;;5079105;28;20616;-69
2023/01/30 12:50:05;;;;;;;7.63;2.20;;;6.90;99.90;;;;;;5078608;28;20439;-67
2023/01/30 12:53:08;;;;;;;11.70;3.10;;;7.00;99.90;;;;;;5075731;28;20454;-69
2023/01/30 12:55:45;;;;;;;6.87;2.00;;;7.10;99.90;;;;;;5078505;28;20513;-69
2023/01/30 12:58:19;;;;;;;7.30;2.20;;;7.30;99.90;;;;;;5072795;28;20529;-68
2023/01/30 13:01:00;;;;;;;15.67;2.50;;;7.30;99.90;;;;;;5057911;28;20443;-68
2023/01/30 13:03:35;;;;;;;5.60;2.10;;;7.20;99.90;;;;;;5059087;28;20455;-69
2023/01/30 13:06:13;;;;;;;13.63;3.20;;;7.00;99.90;;;;;;5058701;28;20435;-68
2023/01/30 13:08:52;;;;;;;8.90;2.70;;;6.90;99.90;;;;;;5057862;28;20514;-68